Terminal Aerodrome Forecast
Issued by NWS Wilmington, OH

Current Version | Previous Version | Graphics & Text | Print | Product List | Glossary On
Versions: 1 2 3 4 5 6 7 8 9 10 11 12 13
729
FTUS41 KILN 211730
TAFILN
TAF
KILN 211730Z 2118/2218 10008KT P6SM BKN120
     FM212100 06007KT P6SM BKN120
     FM220000 05005KT P6SM FEW120 BKN250=

USA.gov is the U.S. government's official web portal to all federal, state and local government web resources and services.